Time;durP1;ratioP1;P1;durP2;ratioP2;P2;SDS_P1;SDS_P2;PMS_P1;PMS_P2;Temp;Humidity;BMP_temperature;BMP_pressure;BME280_temperature;BME280_humidity;BME280_pressure;Samples;Min_cycle;Max_cycle;Signal;HPM_P1;HPM_P2
2023/05/06 00:01:33;;;;;;;6.22;2.85;;;17.30;99.90;;;;;;5094026;28;20692;-78
2023/05/06 00:04:04;;;;;;;5.85;2.08;;;17.40;99.90;;;;;;5093579;28;20207;-78
2023/05/06 00:06:35;;;;;;;3.45;1.98;;;17.50;99.90;;;;;;5093149;28;20206;-76
2023/05/06 00:09:06;;;;;;;5.22;2.30;;;17.50;99.90;;;;;;5093210;28;20195;-77
2023/05/06 00:11:39;;;;;;;4.45;2.08;;;17.60;99.90;;;;;;5084443;28;20230;-77
2023/05/06 00:14:12;;;;;;;5.00;2.20;;;17.70;99.90;;;;;;5073153;28;20750;-77
2023/05/06 00:16:43;;;;;;;2.60;1.70;;;17.70;99.90;;;;;;5073060;28;20200;-76
2023/05/06 00:19:15;;;;;;;5.03;2.25;;;17.80;99.90;;;;;;5072071;28;20202;-77
2023/05/06 00:21:46;;;;;;;4.50;2.20;;;18.00;99.90;;;;;;5071793;28;20241;-78
2023/05/06 00:24:17;;;;;;;5.90;2.08;;;18.00;99.90;;;;;;5071760;28;20202;-76
2023/05/06 00:26:48;;;;;;;6.20;2.28;;;18.10;99.90;;;;;;5071892;28;20196;-77
2023/05/06 00:29:21;;;;;;;6.55;2.20;;;18.30;99.90;;;;;;5071677;28;20699;-77
2023/05/06 00:31:52;;;;;;;4.60;2.10;;;18.30;99.90;;;;;;5071735;28;20195;-77
2023/05/06 00:34:23;;;;;;;5.65;2.28;;;18.40;99.90;;;;;;5072147;28;20227;-78
2023/05/06 00:36:56;;;;;;;5.90;2.20;;;18.50;99.90;;;;;;5071513;28;20192;-77
2023/05/06 00:39:27;;;;;;;9.50;2.13;;;18.50;99.90;;;;;;5071573;28;20684;-77
2023/05/06 00:42:03;;;;;;;3.33;1.83;;;18.60;99.90;;;;;;5071045;28;20203;-78
2023/05/06 00:44:38;;;;;;;4.57;2.13;;;18.70;99.90;;;;;;5071627;28;20207;-78
2023/05/06 00:47:10;;;;;;;5.40;1.88;;;18.80;99.90;;;;;;5072002;28;20206;-77
2023/05/06 00:49:41;;;;;;;6.45;2.22;;;18.80;99.90;;;;;;5074650;28;20203;-77
2023/05/06 00:52:12;;;;;;;5.55;1.88;;;18.90;99.90;;;;;;5091633;28;20199;-77
2023/05/06 00:54:44;;;;;;;5.95;2.17;;;19.00;99.90;;;;;;5090883;28;20237;-79
2023/05/06 00:57:15;;;;;;;10.43;1.55;;;19.10;99.90;;;;;;5090921;28;20199;-76
2023/05/06 00:59:48;;;;;;;3.83;1.38;;;19.10;99.90;;;;;;5090840;28;20218;-76
2023/05/06 01:02:19;;;;;;;3.72;1.05;;;19.10;99.90;;;;;;5090732;28;20567;-76
2023/05/06 01:04:50;;;;;;;2.80;1.38;;;19.10;99.90;;;;;;5090757;28;20201;-76
2023/05/06 01:07:42;;;;;;;5.45;1.25;;;19.30;99.90;;;;;;5089965;28;20199;-77
2023/05/06 01:10:19;;;;;;;2.47;1.23;;;19.40;99.90;;;;;;5090397;28;20244;-74
2023/05/06 01:12:59;;;;;;;5.93;1.33;;;19.40;99.90;;;;;;5071473;28;20219;-76
2023/05/06 01:15:38;;;;;;;1.90;1.20;;;19.60;99.90;;;;;;5070233;28;20227;-77
2023/05/06 01:18:15;;;;;;;1.63;1.10;;;19.60;99.90;;;;;;5070599;28;20290;-76
2023/05/06 01:20:51;;;;;;;1.98;1.10;;;19.80;99.90;;;;;;5070551;28;20199;-76
2023/05/06 01:23:24;;;;;;;2.60;1.20;;;19.80;99.90;;;;;;5070884;28;20203;-76
2023/05/06 01:25:55;;;;;;;5.93;1.40;;;19.90;99.30;;;;;;5070207;28;20207;-77
2023/05/06 01:28:26;;;;;;;3.70;1.45;;;20.00;99.20;;;;;;5070741;28;20228;-78
2023/05/06 01:31:01;;;;;;;4.97;1.58;;;19.90;99.30;;;;;;5070548;28;20215;-77
2023/05/06 01:33:49;;;;;;;4.38;1.88;;;20.00;99.70;;;;;;5070782;28;20551;-77
2023/05/06 01:36:27;;;;;;;3.17;1.50;;;20.00;98.90;;;;;;5070560;28;20562;-77
2023/05/06 01:39:06;;;;;;;2.03;1.20;;;20.10;99.40;;;;;;5070541;28;20570;-77
2023/05/06 01:41:40;;;;;;;3.30;1.55;;;20.00;97.60;;;;;;5070709;28;20288;-77
2023/05/06 01:44:12;;;;;;;4.18;1.70;;;20.00;98.30;;;;;;5070740;28;20210;-77
2023/05/06 01:46:44;;;;;;;2.78;1.15;;;20.20;98.30;;;;;;5070629;28;20217;-77
2023/05/06 01:49:16;;;;;;;3.17;1.30;;;20.20;97.10;;;;;;5071401;28;20200;-77
2023/05/06 01:51:51;;;;;;;3.33;1.30;;;20.20;96.30;;;;;;5070320;28;20236;-76
2023/05/06 01:54:24;;;;;;;2.50;1.48;;;20.30;96.80;;;;;;5070121;28;20265;-76
2023/05/06 01:56:55;;;;;;;2.38;1.00;;;20.30;97.10;;;;;;5070256;28;20671;-76
2023/05/06 01:59:26;;;;;;;5.10;1.65;;;20.40;97.20;;;;;;5070734;28;20200;-76
2023/05/06 02:01:57;;;;;;;2.20;1.10;;;20.50;96.20;;;;;;5070237;28;20206;-76
2023/05/06 02:04:28;;;;;;;2.28;1.30;;;20.60;96.30;;;;;;5070329;28;20203;-76
2023/05/06 02:06:59;;;;;;;3.80;1.40;;;20.60;95.70;;;;;;5070137;28;20238;-76
2023/05/06 02:09:32;;;;;;;4.97;1.38;;;20.60;95.80;;;;;;5069789;28;20200;-77
2023/05/06 02:12:03;;;;;;;2.55;1.30;;;20.70;95.10;;;;;;5071019;28;20227;-77
2023/05/06 02:14:34;;;;;;;5.20;1.50;;;20.70;95.10;;;;;;5070531;28;20717;-77
2023/05/06 02:17:07;;;;;;;3.03;1.30;;;20.70;94.10;;;;;;5069960;28;20200;-76
2023/05/06 02:19:38;;;;;;;4.43;1.55;;;20.60;93.60;;;;;;5069837;28;20682;-77
2023/05/06 02:22:10;;;;;;;3.08;1.33;;;20.60;94.20;;;;;;5070048;28;20563;-76
2023/05/06 02:24:43;;;;;;;3.00;1.30;;;20.70;93.10;;;;;;5069834;28;20250;-77
2023/05/06 02:27:14;;;;;;;1.92;1.15;;;20.80;93.10;;;;;;5070367;28;20204;-77
2023/05/06 02:29:45;;;;;;;2.85;1.40;;;20.70;91.20;;;;;;5073409;28;20636;-77
2023/05/06 02:32:16;;;;;;;3.65;1.75;;;20.70;90.30;;;;;;5073998;28;20200;-77
2023/05/06 02:34:47;;;;;;;3.22;1.25;;;20.80;91.20;;;;;;5073039;28;20219;-77
2023/05/06 02:37:18;;;;;;;1.95;1.10;;;21.00;91.30;;;;;;5073123;28;20203;-77
2023/05/06 02:39:51;;;;;;;1.67;1.10;;;21.10;90.80;;;;;;5073294;28;20196;-78
2023/05/06 02:42:23;;;;;;;1.48;1.00;;;21.00;88.40;;;;;;5073318;28;20655;-77
2023/05/06 02:44:54;;;;;;;3.35;1.10;;;21.00;90.00;;;;;;5073302;28;20222;-77
2023/05/06 02:47:25;;;;;;;2.67;1.38;;;21.10;88.40;;;;;;5073122;28;20551;-77
2023/05/06 02:49:56;;;;;;;3.50;1.15;;;21.20;84.10;;;;;;5073940;28;20208;-77
2023/05/06 02:52:27;;;;;;;2.72;1.08;;;21.20;80.80;;;;;;5073063;28;20206;-77
2023/05/06 02:55:00;;;;;;;2.42;1.38;;;21.20;80.50;;;;;;5073073;28;20303;-77
2023/05/06 02:57:31;;;;;;;3.65;1.70;;;21.30;80.50;;;;;;5072817;28;20567;-77
2023/05/06 03:00:04;;;;;;;2.53;1.20;;;21.30;82.40;;;;;;5072717;28;20568;-77
2023/05/06 03:02:36;;;;;;;2.50;1.15;;;21.40;83.70;;;;;;5072872;28;20195;-77
2023/05/06 03:05:07;;;;;;;3.40;1.55;;;21.40;80.40;;;;;;5073018;28;20200;-77
2023/05/06 03:07:38;;;;;;;2.28;0.80;;;21.30;83.40;;;;;;5073315;28;20199;-76
2023/05/06 03:10:13;;;;;;;2.45;1.23;;;21.50;81.90;;;;;;5073098;28;20662;-77
2023/05/06 03:12:44;;;;;;;3.08;1.20;;;21.60;78.00;;;;;;5072691;28;20215;-77
2023/05/06 03:15:15;;;;;;;2.83;1.48;;;21.50;76.00;;;;;;5072592;28;20219;-77
2023/05/06 03:17:48;;;;;;;2.38;1.15;;;21.50;77.30;;;;;;5072534;28;20677;-77
2023/05/06 03:20:19;;;;;;;2.08;1.20;;;21.60;77.60;;;;;;5072549;28;20200;-77
2023/05/06 03:22:50;;;;;;;2.35;0.98;;;21.60;77.00;;;;;;5072890;28;20203;-78
2023/05/06 03:25:23;;;;;;;4.60;1.05;;;21.60;76.60;;;;;;5072557;28;20892;-77
2023/05/06 03:27:54;;;;;;;2.67;1.33;;;21.60;76.30;;;;;;5071943;28;20207;-77
2023/05/06 03:30:26;;;;;;;1.48;1.00;;;21.70;76.30;;;;;;5072085;28;20211;-77
2023/05/06 03:32:58;;;;;;;5.25;1.52;;;21.80;79.50;;;;;;5072074;28;20203;-77
2023/05/06 03:35:29;;;;;;;3.53;1.27;;;21.70;76.30;;;;;;5071929;28;20698;-77
2023/05/06 03:38:01;;;;;;;2.47;1.20;;;21.60;77.40;;;;;;5071933;28;20195;-77
2023/05/06 03:40:34;;;;;;;2.35;1.10;;;21.70;77.40;;;;;;5078571;28;20188;-76
2023/05/06 03:43:05;;;;;;;4.43;1.27;;;21.60;77.20;;;;;;5087076;28;20196;-77
2023/05/06 03:45:36;;;;;;;2.22;1.08;;;21.60;78.00;;;;;;5071941;28;20200;-77
2023/05/06 03:48:08;;;;;;;2.83;1.35;;;21.50;77.50;;;;;;5071862;28;20273;-77
2023/05/06 03:50:39;;;;;;;2.95;1.20;;;21.60;77.70;;;;;;5071730;28;20206;-77
2023/05/06 03:53:10;;;;;;;2.60;1.20;;;21.50;77.70;;;;;;5073034;28;20208;-77
2023/05/06 03:55:44;;;;;;;3.25;1.30;;;21.50;79.20;;;;;;5072128;28;20223;-77
2023/05/06 03:58:15;;;;;;;3.53;1.30;;;21.60;79.30;;;;;;5072154;28;20663;-77
2023/05/06 04:00:46;;;;;;;4.03;1.10;;;21.60;78.10;;;;;;5071674;28;20203;-77
2023/05/06 04:03:17;;;;;;;4.68;1.17;;;21.60;75.50;;;;;;5071787;28;20200;-77
2023/05/06 04:05:50;;;;;;;3.10;1.20;;;21.60;76.60;;;;;;5071693;28;20196;-77
2023/05/06 04:08:21;;;;;;;4.82;1.20;;;21.60;75.70;;;;;;5071529;28;20202;-77
2023/05/06 04:10:55;;;;;;;1.75;1.08;;;21.60;75.10;;;;;;5071311;28;20682;-76
2023/05/06 04:13:26;;;;;;;2.92;1.02;;;21.50;75.00;;;;;;5071941;28;20215;-77
2023/05/06 04:15:58;;;;;;;1.33;0.93;;;21.50;75.20;;;;;;5071188;28;20231;-77
2023/05/06 04:18:29;;;;;;;3.50;1.23;;;21.50;76.40;;;;;;5071424;28;20540;-77
2023/05/06 04:21:00;;;;;;;2.53;1.02;;;21.50;77.00;;;;;;5071762;28;20202;-77
2023/05/06 04:23:32;;;;;;;3.92;1.42;;;21.50;77.20;;;;;;5071051;28;20192;-77
2023/05/06 04:26:05;;;;;;;1.40;0.90;;;21.60;76.30;;;;;;5071487;28;20686;-78
2023/05/06 04:28:36;;;;;;;3.03;1.13;;;21.50;76.30;;;;;;5071050;28;20271;-76
2023/05/06 04:31:07;;;;;;;2.58;1.08;;;21.50;77.70;;;;;;5071652;28;20642;-77
2023/05/06 04:33:38;;;;;;;2.28;1.10;;;21.50;77.20;;;;;;5071252;28;20257;-77
2023/05/06 04:36:10;;;;;;;2.95;1.20;;;21.50;76.80;;;;;;5070678;28;20232;-78
2023/05/06 04:38:41;;;;;;;3.05;1.13;;;21.40;78.00;;;;;;5071154;28;20674;-76
2023/05/06 04:41:14;;;;;;;3.60;1.00;;;21.40;78.00;;;;;;5071161;28;20677;-77
2023/05/06 04:43:45;;;;;;;2.22;1.20;;;21.40;77.70;;;;;;5070799;28;20199;-76
2023/05/06 04:46:16;;;;;;;2.63;0.88;;;21.50;77.80;;;;;;5070226;28;20200;-77
2023/05/06 04:48:47;;;;;;;3.72;1.02;;;21.50;77.70;;;;;;5071177;28;20206;-77
2023/05/06 04:51:18;;;;;;;2.15;1.02;;;21.50;78.70;;;;;;5070015;28;20207;-77
2023/05/06 04:53:49;;;;;;;4.88;1.33;;;21.60;77.50;;;;;;5070482;28;20196;-77
2023/05/06 04:56:22;;;;;;;1.50;0.90;;;21.60;78.60;;;;;;5071792;28;20219;-78
2023/05/06 04:58:53;;;;;;;2.75;1.20;;;21.60;77.00;;;;;;5071410;28;20196;-77
2023/05/06 05:01:25;;;;;;;1.73;0.82;;;21.60;78.60;;;;;;5071860;28;20199;-78
2023/05/06 05:03:56;;;;;;;1.55;0.90;;;21.60;79.40;;;;;;5070581;28;20199;-78
2023/05/06 05:06:27;;;;;;;4.03;1.20;;;21.60;77.60;;;;;;5088693;28;20199;-78
2023/05/06 05:09:00;;;;;;;2.03;1.00;;;21.60;78.10;;;;;;5090390;28;20206;-76
2023/05/06 05:11:33;;;;;;;1.63;0.95;;;21.60;78.70;;;;;;5082477;28;20637;-77
2023/05/06 05:14:04;;;;;;;1.75;0.90;;;21.60;76.90;;;;;;5071906;28;20184;-78
2023/05/06 05:16:35;;;;;;;1.42;1.00;;;21.60;75.50;;;;;;5072382;28;20702;-77
2023/05/06 05:19:07;;;;;;;3.15;0.90;;;21.50;76.90;;;;;;5072719;28;20204;-78
2023/05/06 05:21:38;;;;;;;4.47;1.30;;;21.50;78.10;;;;;;5073908;28;20609;-77
2023/05/06 05:24:12;;;;;;;2.58;1.20;;;21.60;77.10;;;;;;5091260;28;20205;-77
2023/05/06 05:26:45;;;;;;;3.65;1.17;;;21.60;76.90;;;;;;5086824;28;20241;-77
2023/05/06 05:29:16;;;;;;;3.20;1.30;;;21.70;77.50;;;;;;5092387;28;20234;-78
2023/05/06 05:31:48;;;;;;;2.80;1.10;;;21.80;79.10;;;;;;5078639;28;20188;-78
2023/05/06 05:34:19;;;;;;;1.98;0.95;;;21.80;76.90;;;;;;5070617;28;20196;-78
2023/05/06 05:36:50;;;;;;;2.13;1.13;;;21.80;76.30;;;;;;5071268;28;20745;-77
2023/05/06 05:39:21;;;;;;;2.28;1.20;;;21.80;77.70;;;;;;5071327;28;20196;-78
2023/05/06 05:41:55;;;;;;;2.22;1.10;;;21.80;78.00;;;;;;5072053;28;20199;-76
2023/05/06 05:44:26;;;;;;;1.95;1.10;;;21.90;79.10;;;;;;5073016;28;20654;-76
2023/05/06 05:46:57;;;;;;;1.88;1.10;;;21.90;81.20;;;;;;5075136;28;20204;-76
2023/05/06 05:49:28;;;;;;;3.55;1.30;;;22.00;80.50;;;;;;5073229;28;20200;-76
2023/05/06 05:52:00;;;;;;;1.73;0.90;;;22.00;78.70;;;;;;5071756;28;20214;-77
2023/05/06 05:54:33;;;;;;;1.40;1.00;;;22.10;80.40;;;;;;5072202;28;20726;-76
2023/05/06 05:57:06;;;;;;;2.45;0.93;;;22.10;81.80;;;;;;5071311;28;20220;-76
2023/05/06 05:59:38;;;;;;;4.07;2.33;;;22.10;83.20;;;;;;5071017;28;20200;-76
2023/05/06 06:02:09;;;;;;;3.38;1.77;;;22.20;86.50;;;;;;5072245;28;20203;-76
2023/05/06 06:04:40;;;;;;;2.58;1.50;;;22.20;87.40;;;;;;5083924;28;20200;-76
2023/05/06 06:07:12;;;;;;;1.83;1.33;;;22.30;89.10;;;;;;5091546;28;20208;-77
2023/05/06 06:09:45;;;;;;;2.80;1.50;;;22.30;87.50;;;;;;5085461;28;20249;-76
2023/05/06 06:12:19;;;;;;;4.35;1.70;;;22.40;89.30;;;;;;5075279;28;20226;-76
2023/05/06 06:14:50;;;;;;;2.88;1.33;;;22.50;89.00;;;;;;5057632;28;20254;-76
2023/05/06 06:17:21;;;;;;;2.38;1.20;;;22.60;88.40;;;;;;5056033;28;20224;-76
2023/05/06 06:19:55;;;;;;;2.85;1.40;;;22.70;88.00;;;;;;5055008;28;20200;-78
2023/05/06 06:22:27;;;;;;;3.00;1.60;;;22.80;89.40;;;;;;5055354;28;20200;-77
2023/05/06 06:24:58;;;;;;;3.38;1.38;;;22.80;89.20;;;;;;5054496;28;20254;-77
2023/05/06 06:27:31;;;;;;;2.55;1.40;;;22.70;89.40;;;;;;5055465;28;20196;-77
2023/05/06 06:30:02;;;;;;;2.88;1.40;;;22.60;90.30;;;;;;5059042;28;20239;-77
2023/05/06 06:32:33;;;;;;;2.05;1.10;;;22.40;90.60;;;;;;5056062;28;20201;-77
2023/05/06 06:35:04;;;;;;;2.75;2.00;;;22.20;91.40;;;;;;5063539;28;20195;-78
2023/05/06 06:37:37;;;;;;;3.00;1.80;;;22.10;92.30;;;;;;5095724;28;20311;-77
2023/05/06 06:40:09;;;;;;;3.35;1.52;;;21.90;92.90;;;;;;5078858;28;20200;-78
2023/05/06 06:42:42;;;;;;;3.75;1.42;;;21.80;93.70;;;;;;5075301;28;20219;-77
2023/05/06 06:45:13;;;;;;;2.17;1.10;;;21.60;93.90;;;;;;5073992;28;20195;-78
2023/05/06 06:47:45;;;;;;;3.30;1.25;;;21.50;94.80;;;;;;5074586;28;20200;-77
2023/05/06 06:50:16;;;;;;;2.28;1.20;;;21.40;94.90;;;;;;5075985;28;20255;-77
2023/05/06 06:52:47;;;;;;;1.80;1.23;;;21.20;95.30;;;;;;5075783;28;20285;-77
2023/05/06 06:55:18;;;;;;;1.90;1.60;;;21.10;95.80;;;;;;5073836;28;20681;-77
2023/05/06 06:57:51;;;;;;;2.75;1.38;;;21.00;97.00;;;;;;5072863;28;20196;-77
2023/05/06 07:00:23;;;;;;;3.00;1.42;;;21.00;97.60;;;;;;5072816;28;20206;-77
2023/05/06 07:02:54;;;;;;;5.35;2.90;;;20.80;98.60;;;;;;5072882;28;20203;-77
2023/05/06 07:05:25;;;;;;;4.38;3.22;;;20.70;98.50;;;;;;5073430;28;20196;-77
2023/05/06 07:07:56;;;;;;;5.10;3.25;;;20.60;99.80;;;;;;5072592;28;20196;-77
2023/05/06 07:10:27;;;;;;;3.75;2.20;;;20.50;99.90;;;;;;5069660;28;20196;-78
2023/05/06 07:13:01;;;;;;;3.15;1.77;;;20.50;99.90;;;;;;5072129;28;20196;-76
2023/05/06 07:15:32;;;;;;;3.08;1.80;;;20.40;99.90;;;;;;5066001;28;20297;-78
2023/05/06 07:18:03;;;;;;;2.58;1.83;;;20.30;99.90;;;;;;5071773;28;20188;-76
2023/05/06 07:20:34;;;;;;;1.98;1.50;;;20.30;99.90;;;;;;5072977;28;20209;-77
2023/05/06 07:23:05;;;;;;;3.85;2.58;;;20.30;99.90;;;;;;5081636;28;20654;-78
2023/05/06 07:25:36;;;;;;;3.25;2.28;;;20.20;99.90;;;;;;5092646;28;20615;-77
2023/05/06 07:28:09;;;;;;;3.17;1.60;;;20.10;99.90;;;;;;5074038;28;20601;-76
2023/05/06 07:30:41;;;;;;;2.30;1.35;;;20.10;99.90;;;;;;5071838;28;20219;-76
2023/05/06 07:33:13;;;;;;;2.28;1.60;;;20.00;99.90;;;;;;5072190;28;20206;-75
2023/05/06 07:35:44;;;;;;;5.47;1.80;;;20.00;99.90;;;;;;5072063;28;20187;-76
2023/05/06 07:38:15;;;;;;;3.33;1.98;;;20.00;99.90;;;;;;5073390;28;20287;-77
2023/05/06 07:40:46;;;;;;;3.95;2.20;;;19.90;99.90;;;;;;5086340;28;20196;-76
2023/05/06 07:43:19;;;;;;;3.65;2.20;;;19.90;99.90;;;;;;5070290;28;20207;-76
2023/05/06 07:45:50;;;;;;;4.95;2.72;;;19.90;99.90;;;;;;5071889;28;20219;-76
2023/05/06 07:48:21;;;;;;;3.35;2.33;;;19.90;99.90;;;;;;5071915;28;20215;-77
2023/05/06 07:50:52;;;;;;;4.03;2.15;;;19.80;99.90;;;;;;5071773;28;20192;-76
2023/05/06 07:53:23;;;;;;;3.10;1.90;;;19.70;99.90;;;;;;5071876;28;20226;-76
2023/05/06 07:55:57;;;;;;;4.30;2.20;;;19.60;99.90;;;;;;5071607;28;20223;-76
2023/05/06 07:58:30;;;;;;;3.28;2.20;;;19.60;99.90;;;;;;5071595;28;20697;-75
2023/05/06 08:01:02;;;;;;;4.68;2.42;;;19.60;99.90;;;;;;5071084;28;20571;-76
2023/05/06 08:03:33;;;;;;;2.80;1.85;;;19.50;99.90;;;;;;5071331;28;20278;-77
2023/05/06 08:06:04;;;;;;;4.30;1.88;;;19.50;99.90;;;;;;5071794;28;20199;-77
2023/05/06 08:08:35;;;;;;;2.92;1.80;;;19.50;99.90;;;;;;5071602;28;20680;-76
2023/05/06 08:11:06;;;;;;;4.43;2.17;;;19.40;99.90;;;;;;5071490;28;20196;-76
2023/05/06 08:13:39;;;;;;;2.70;1.85;;;19.40;99.90;;;;;;5072350;28;20677;-76
2023/05/06 08:16:11;;;;;;;4.47;1.73;;;19.40;99.90;;;;;;5071515;28;20224;-77
2023/05/06 08:18:42;;;;;;;3.47;1.92;;;19.40;99.90;;;;;;5071205;28;20669;-75
2023/05/06 08:21:13;;;;;;;4.07;2.28;;;19.40;99.90;;;;;;5071296;28;20206;-77
2023/05/06 08:23:44;;;;;;;3.00;2.35;;;19.30;99.90;;;;;;5070771;28;20332;-77
2023/05/06 08:26:15;;;;;;;4.18;2.83;;;19.30;99.90;;;;;;5070590;28;20200;-77
2023/05/06 08:28:48;;;;;;;4.30;3.17;;;19.30;99.90;;;;;;5071981;28;20235;-75
2023/05/06 08:31:19;;;;;;;5.53;4.18;;;19.20;99.90;;;;;;5070018;28;20206;-76
2023/05/06 08:33:50;;;;;;;4.93;3.92;;;19.30;99.90;;;;;;5070824;28;20196;-75
2023/05/06 08:36:21;;;;;;;6.30;3.20;;;19.30;99.90;;;;;;5070822;28;20215;-76
2023/05/06 08:38:52;;;;;;;6.57;3.40;;;19.30;99.90;;;;;;5076316;28;20191;-75
2023/05/06 08:41:24;;;;;;;5.30;3.00;;;19.30;99.90;;;;;;5091183;28;20662;-76
2023/05/06 08:43:58;;;;;;;5.70;2.50;;;19.20;99.90;;;;;;5091116;28;20195;-76
2023/05/06 08:46:30;;;;;;;4.95;2.65;;;19.20;99.90;;;;;;5080996;28;20206;-76
2023/05/06 08:49:02;;;;;;;3.83;2.55;;;19.30;99.90;;;;;;5070711;28;20551;-76
2023/05/06 08:51:33;;;;;;;5.57;3.15;;;19.20;99.90;;;;;;5070743;28;20196;-77
2023/05/06 08:54:05;;;;;;;7.53;3.90;;;19.20;99.90;;;;;;5070937;28;20199;-77
2023/05/06 08:56:38;;;;;;;9.98;4.90;;;19.10;99.90;;;;;;5070885;28;20228;-77
2023/05/06 08:59:12;;;;;;;6.60;4.10;;;19.10;99.90;;;;;;5070730;28;20214;-76
2023/05/06 09:01:43;;;;;;;5.95;4.03;;;19.00;99.90;;;;;;5070832;28;20241;-74
2023/05/06 09:04:15;;;;;;;6.13;3.90;;;18.90;99.90;;;;;;5071274;28;20199;-76
2023/05/06 09:06:46;;;;;;;8.75;4.10;;;18.90;99.90;;;;;;5070706;28;20720;-76
2023/05/06 09:09:17;;;;;;;5.80;3.70;;;18.80;99.90;;;;;;5072390;28;20300;-77
2023/05/06 09:11:52;;;;;;;5.25;3.42;;;18.80;99.90;;;;;;5071125;28;20200;-77
2023/05/06 09:14:26;;;;;;;5.32;3.40;;;18.70;99.90;;;;;;5070601;28;20196;-76
2023/05/06 09:16:57;;;;;;;5.80;3.65;;;18.70;99.90;;;;;;5070535;28;20597;-76
2023/05/06 09:19:28;;;;;;;9.85;6.60;;;18.70;99.90;;;;;;5070843;28;20196;-76
2023/05/06 09:21:59;;;;;;;7.03;5.70;;;18.70;99.90;;;;;;5070300;28;20214;-77
2023/05/06 09:24:30;;;;;;;9.15;4.93;;;18.70;99.90;;;;;;5070481;28;20203;-77
2023/05/06 09:27:02;;;;;;;8.80;4.55;;;18.70;99.90;;;;;;5070306;28;20203;-77
2023/05/06 09:29:35;;;;;;;6.53;3.80;;;18.60;99.90;;;;;;5069990;28;20261;-77
2023/05/06 09:32:10;;;;;;;5.38;3.33;;;18.60;99.90;;;;;;5070359;28;20202;-76
2023/05/06 09:34:41;;;;;;;4.57;3.42;;;18.60;99.90;;;;;;5070204;28;20199;-76
2023/05/06 09:37:12;;;;;;;4.05;2.80;;;18.60;99.90;;;;;;5080533;28;20230;-76
2023/05/06 09:39:43;;;;;;;4.20;2.80;;;18.60;99.90;;;;;;5094580;28;20191;-77
2023/05/06 09:42:15;;;;;;;5.55;3.03;;;18.60;99.90;;;;;;5094578;28;20569;-76
2023/05/06 09:44:48;;;;;;;5.07;3.08;;;18.60;99.90;;;;;;5095030;28;20194;-76
2023/05/06 09:47:19;;;;;;;4.38;3.15;;;18.50;99.90;;;;;;5063811;28;20203;-78
2023/05/06 09:49:50;;;;;;;4.22;2.88;;;18.50;99.90;;;;;;5073822;28;20658;-78
2023/05/06 09:52:22;;;;;;;4.57;2.90;;;18.50;99.90;;;;;;5073714;28;20206;-76
2023/05/06 09:54:55;;;;;;;3.97;2.95;;;18.50;99.90;;;;;;5087325;28;20199;-76
2023/05/06 09:57:26;;;;;;;6.03;4.13;;;18.40;99.90;;;;;;5082614;28;20231;-77
2023/05/06 10:00:01;;;;;;;15.45;11.13;;;18.40;99.90;;;;;;5068393;28;20192;-76
2023/05/06 10:02:33;;;;;;;14.02;10.68;;;18.30;99.90;;;;;;5071019;28;20207;-77
2023/05/06 10:05:07;;;;;;;9.80;7.05;;;18.40;99.90;;;;;;5067215;28;20206;-77
2023/05/06 10:07:39;;;;;;;9.73;6.07;;;18.30;99.90;;;;;;5068886;28;20192;-77
2023/05/06 10:10:13;;;;;;;7.07;5.15;;;18.30;99.90;;;;;;5068708;28;20257;-77
2023/05/06 10:12:44;;;;;;;6.68;4.20;;;18.30;99.90;;;;;;5069038;28;20199;-77
2023/05/06 10:15:18;;;;;;;5.22;4.35;;;18.30;99.90;;;;;;5069054;28;20185;-77
2023/05/06 10:17:51;;;;;;;5.95;4.40;;;18.30;99.90;;;;;;5068664;28;20293;-76
2023/05/06 10:20:25;;;;;;;6.57;4.25;;;18.30;99.90;;;;;;5069430;28;20219;-77
2023/05/06 10:23:05;;;;;;;7.40;5.57;;;18.20;99.90;;;;;;5068417;28;20195;-76
2023/05/06 10:25:41;;;;;;;10.07;7.65;;;18.20;99.90;;;;;;5068240;28;20207;-77
2023/05/06 10:28:13;;;;;;;9.27;7.30;;;18.20;99.90;;;;;;5068708;28;20943;-78
2023/05/06 10:30:48;;;;;;;9.05;6.53;;;18.20;99.90;;;;;;5068135;28;20200;-77
2023/05/06 10:33:19;;;;;;;11.68;7.32;;;18.20;99.90;;;;;;5069990;28;20733;-77
2023/05/06 10:35:57;;;;;;;10.32;6.70;;;18.10;99.90;;;;;;5069491;28;20226;-77
2023/05/06 10:38:32;;;;;;;11.23;6.47;;;18.10;99.90;;;;;;5070943;28;20588;-77
2023/05/06 10:41:04;;;;;;;9.75;6.38;;;18.10;99.90;;;;;;5072656;28;20309;-77
2023/05/06 10:43:36;;;;;;;10.55;6.10;;;18.10;99.90;;;;;;5072880;28;20203;-77
2023/05/06 10:46:12;;;;;;;9.57;6.05;;;18.00;99.90;;;;;;5088405;28;20661;-77
2023/05/06 10:49:26;;;;;;;11.35;6.53;;;18.00;99.90;;;;;;5091355;28;20191;-77
2023/05/06 10:52:13;;;;;;;10.43;6.03;;;18.00;99.90;;;;;;5054906;28;20272;-77
2023/05/06 10:55:03;;;;;;;6.68;5.30;;;18.00;99.90;;;;;;5072639;28;20257;-78
2023/05/06 10:57:43;;;;;;;8.00;5.45;;;18.00;99.90;;;;;;5071223;28;20227;-77
2023/05/06 11:00:15;;;;;;;7.53;5.07;;;17.90;99.90;;;;;;5071127;28;20702;-77
2023/05/06 11:02:52;;;;;;;6.65;4.75;;;17.90;99.90;;;;;;5067891;28;20666;-78
2023/05/06 11:05:23;;;;;;;6.68;4.47;;;17.90;99.90;;;;;;5072755;28;20199;-78
2023/05/06 11:07:54;;;;;;;7.28;5.05;;;17.90;99.90;;;;;;5072684;28;20200;-77
2023/05/06 11:10:38;;;;;;;7.03;4.68;;;17.90;99.90;;;;;;5056691;28;20197;-79
2023/05/06 11:13:28;;;;;;;7.95;5.60;;;17.90;99.90;;;;;;5069803;28;20217;-75
2023/05/06 11:16:01;;;;;;;11.73;6.07;;;17.80;99.90;;;;;;5072679;28;20321;-77
2023/05/06 11:18:49;;;;;;;12.10;6.57;;;17.80;99.90;;;;;;5061641;28;20746;-77
2023/05/06 11:21:42;;;;;;;12.38;7.03;;;17.80;99.90;;;;;;5054598;28;20188;-77
2023/05/06 11:24:15;;;;;;;12.30;7.85;;;17.70;99.90;;;;;;5052431;28;20204;-77
2023/05/06 11:26:46;;;;;;;11.10;7.95;;;17.80;99.90;;;;;;5053258;28;20988;-78
2023/05/06 11:29:19;;;;;;;10.48;7.18;;;17.80;99.90;;;;;;5056678;28;20224;-75
2023/05/06 11:31:51;;;;;;;8.20;6.28;;;17.70;99.90;;;;;;5072757;28;20698;-77
2023/05/06 11:34:27;;;;;;;8.85;6.60;;;17.70;99.90;;;;;;5072116;28;20766;-77
2023/05/06 11:37:03;;;;;;;7.82;5.70;;;17.70;99.90;;;;;;5077716;28;20260;-77
2023/05/06 11:39:35;;;;;;;9.35;5.75;;;17.70;99.90;;;;;;5072318;28;20202;-76
2023/05/06 11:42:07;;;;;;;9.05;6.07;;;17.70;99.90;;;;;;5079215;28;20192;-77
2023/05/06 11:44:40;;;;;;;8.77;6.25;;;17.70;99.90;;;;;;5089863;28;20196;-77
2023/05/06 11:47:11;;;;;;;8.57;6.43;;;17.60;99.90;;;;;;5070144;28;20278;-77
2023/05/06 11:49:45;;;;;;;8.15;6.35;;;17.60;99.90;;;;;;5065557;28;20240;-77
2023/05/06 11:52:16;;;;;;;8.57;5.75;;;17.60;99.90;;;;;;5062657;28;20201;-77
2023/05/06 11:54:48;;;;;;;9.30;6.05;;;17.60;99.90;;;;;;5068502;28;20200;-78
2023/05/06 11:57:21;;;;;;;7.95;5.75;;;17.60;99.90;;;;;;5072252;28;20564;-76
2023/05/06 11:59:56;;;;;;;8.25;5.60;;;17.50;99.90;;;;;;5069344;28;20223;-77
2023/05/06 12:02:27;;;;;;;8.55;5.93;;;17.40;99.90;;;;;;5066157;28;20196;-77
2023/05/06 12:05:04;;;;;;;6.35;5.10;;;17.40;99.90;;;;;;5063862;28;20200;-77
2023/05/06 12:07:35;;;;;;;9.63;5.60;;;17.40;99.90;;;;;;5066438;28;20199;-78
2023/05/06 12:10:10;;;;;;;9.15;5.20;;;17.40;99.90;;;;;;5059838;28;20673;-77
2023/05/06 12:12:41;;;;;;;7.20;5.10;;;17.30;99.90;;;;;;5064382;28;20200;-78
2023/05/06 12:15:13;;;;;;;8.57;4.97;;;17.30;99.90;;;;;;5080683;28;20240;-78
2023/05/06 12:17:45;;;;;;;6.38;4.97;;;17.30;99.90;;;;;;5071567;28;20219;-78
2023/05/06 12:20:18;;;;;;;7.55;4.97;;;17.20;99.90;;;;;;5065569;28;20219;-76
2023/05/06 12:23:06;;;;;;;7.72;4.90;;;17.20;99.90;;;;;;5065673;28;20216;-77
2023/05/06 12:25:37;;;;;;;6.38;4.85;;;17.10;99.90;;;;;;5066601;28;20195;-78
2023/05/06 12:28:17;;;;;;;7.32;4.93;;;17.10;99.90;;;;;;5074905;28;20627;-77
2023/05/06 12:30:49;;;;;;;8.75;5.45;;;17.10;99.90;;;;;;5068782;28;20699;-76
2023/05/06 12:33:20;;;;;;;11.82;5.30;;;17.10;99.90;;;;;;5069704;28;20237;-76
2023/05/06 12:35:55;;;;;;;7.78;5.05;;;17.00;99.90;;;;;;5071392;28;20200;-77
2023/05/06 12:38:26;;;;;;;6.95;5.53;;;16.90;99.90;;;;;;5089088;28;20215;-77
2023/05/06 12:40:58;;;;;;;7.68;5.43;;;16.90;99.90;;;;;;5078077;28;20195;-77
2023/05/06 12:43:32;;;;;;;7.28;5.53;;;16.90;99.90;;;;;;5081910;28;20192;-77
2023/05/06 12:46:08;;;;;;;7.35;5.47;;;16.90;99.90;;;;;;5060256;28;20215;-77
2023/05/06 12:48:39;;;;;;;8.23;5.25;;;16.90;99.90;;;;;;5070918;28;20196;-77
2023/05/06 12:51:25;;;;;;;8.13;5.55;;;16.90;99.90;;;;;;5068449;28;20196;-78
2023/05/06 12:53:56;;;;;;;9.50;5.13;;;16.90;99.90;;;;;;5070351;28;20203;-77
2023/05/06 12:56:27;;;;;;;8.70;5.70;;;16.90;99.90;;;;;;5070837;28;20211;-78
2023/05/06 12:59:02;;;;;;;9.95;5.90;;;16.80;99.90;;;;;;5066304;28;20246;-77
2023/05/06 13:01:35;;;;;;;11.20;5.78;;;16.80;99.90;;;;;;5081539;28;20296;-79
2023/05/06 13:04:06;;;;;;;8.77;5.65;;;16.80;99.90;;;;;;5091086;28;20716;-77
2023/05/06 13:06:39;;;;;;;10.60;5.88;;;16.80;99.90;;;;;;5070343;28;20204;-77
2023/05/06 13:09:10;;;;;;;10.05;6.13;;;16.80;99.90;;;;;;5070780;28;20576;-77
2023/05/06 13:11:41;;;;;;;11.05;6.07;;;16.80;99.90;;;;;;5070327;28;20663;-77
2023/05/06 13:14:12;;;;;;;9.98;6.35;;;16.80;99.90;;;;;;5070570;28;20203;-77